Time;durP1;ratioP1;P1;durP2;ratioP2;P2;SDS_P1;SDS_P2;PMS_P1;PMS_P2;Temp;Humidity;BMP_temperature;BMP_pressure;BME280_temperature;BME280_humidity;BME280_pressure;Samples;Min_cycle;Max_cycle;Signal;HPM_P1;HPM_P2
2022/07/12 00:01:34;;;;;;;;;3.00;3.00;;;;;26.72;41.34;101736.34;4957359;28;45791;-76
2022/07/12 00:03:59;;;;;;;;;3.67;3.00;;;;;26.72;41.39;101747.22;4957088;28;45532;-76
2022/07/12 00:06:25;;;;;;;;;3.67;3.33;;;;;26.66;41.94;101760.06;4957260;28;45562;-76
2022/07/12 00:08:50;;;;;;;;;3.00;3.00;;;;;26.63;42.00;101752.00;4957113;28;45369;-76
2022/07/12 00:11:16;;;;;;;;;3.00;3.00;;;;;26.74;42.45;101768.03;4956789;28;45576;-76
2022/07/12 00:13:41;;;;;;;;;4.67;4.67;;;;;26.69;41.93;101738.22;4957146;28;46089;-76
2022/07/12 00:16:07;;;;;;;;;5.00;3.33;;;;;26.53;42.24;101715.16;4955594;28;45646;-76
2022/07/12 00:18:33;;;;;;;;;3.00;3.00;;;;;26.80;42.13;101740.56;4955904;28;45353;-76
2022/07/12 00:20:58;;;;;;;;;3.00;3.00;;;;;26.69;42.08;101716.47;4956758;28;45417;-76
2022/07/12 00:23:24;;;;;;;;;4.00;4.00;;;;;26.78;42.26;101730.69;4956683;28;45531;-76
2022/07/12 00:25:49;;;;;;;;;3.00;3.00;;;;;26.81;41.93;101727.88;4956678;28;45480;-76
2022/07/12 00:28:15;;;;;;;;;4.00;4.00;;;;;26.83;42.06;101745.03;4956813;28;45447;-76
2022/07/12 00:30:40;;;;;;;;;3.67;3.67;;;;;26.63;42.07;101726.63;4956957;28;45403;-76
2022/07/12 00:33:06;;;;;;;;;3.00;3.00;;;;;26.51;42.80;101730.63;4956542;28;45454;-75
2022/07/12 00:35:31;;;;;;;;;3.00;3.00;;;;;26.41;42.82;101732.75;4956639;28;45397;-76
2022/07/12 00:37:56;;;;;;;;;4.00;3.00;;;;;26.43;42.82;101746.31;4956600;28;45429;-77
2022/07/12 00:40:22;;;;;;;;;4.00;4.00;;;;;26.39;43.06;101740.06;4956935;28;45342;-76
2022/07/12 00:42:47;;;;;;;;;3.33;3.33;;;;;26.43;43.40;101730.88;4956621;28;46097;-76
2022/07/12 00:45:13;;;;;;;;;3.00;3.00;;;;;26.29;43.03;101717.72;4956457;28;45372;-76
2022/07/12 00:47:42;;;;;;;;;2.67;2.67;;;;;26.29;43.07;101717.72;4955510;28;45426;-76
2022/07/12 00:50:11;;;;;;;;;3.00;3.00;;;;;26.35;43.33;101733.81;4956565;28;45523;-76
2022/07/12 00:52:38;;;;;;;;;3.00;3.00;;;;;26.29;43.54;101734.03;4956166;28;46419;-76
2022/07/12 00:55:07;;;;;;;;;4.33;3.33;;;;;26.13;43.09;101717.31;4956179;28;45539;-76
2022/07/12 00:57:34;;;;;;;;;4.00;4.00;;;;;26.13;43.87;101716.41;4956532;28;45406;-76
2022/07/12 01:00:01;;;;;;;;;4.00;4.00;;;;;26.09;43.75;101720.16;4956292;28;45288;-76
2022/07/12 01:02:28;;;;;;;;;5.00;4.00;;;;;26.04;44.26;101716.69;4956426;28;46520;-76
2022/07/12 01:04:54;;;;;;;;;2.33;2.33;;;;;25.95;44.25;101721.44;4956291;28;45743;-76
2022/07/12 01:07:20;;;;;;;;;3.33;3.33;;;;;25.97;44.55;101722.25;4956118;28;45441;-76
2022/07/12 01:09:46;;;;;;;;;4.00;3.00;;;;;26.03;43.96;101723.94;4959884;28;45464;-76
2022/07/12 01:12:12;;;;;;;;;2.67;2.67;;;;;26.04;44.58;101716.69;4959481;28;45551;-76
2022/07/12 01:14:39;;;;;;;;;3.00;3.00;;;;;26.07;44.57;101730.19;4959966;28;45198;-76
2022/07/12 01:17:06;;;;;;;;;4.00;2.67;;;;;25.89;44.12;101688.97;4959688;28;45266;-76
2022/07/12 01:19:32;;;;;;;;;3.00;3.00;;;;;26.01;43.88;101704.09;4959844;28;45405;-76
2022/07/12 01:22:01;;;;;;;;;5.00;3.67;;;;;26.11;44.32;101729.16;4959240;28;46526;-76
2022/07/12 01:24:26;;;;;;;;;2.00;2.00;;;;;26.17;44.04;101731.69;4959510;28;45370;-76
2022/07/12 01:26:53;;;;;;;;;4.00;4.00;;;;;26.04;44.09;101700.38;4959741;28;45408;-76
2022/07/12 01:29:19;;;;;;;;;3.33;3.33;;;;;26.09;44.15;101709.25;4958340;28;45420;-76
2022/07/12 01:31:44;;;;;;;;;3.00;3.00;;;;;26.20;43.98;101728.88;4959493;28;46614;-76
2022/07/12 01:34:10;;;;;;;;;3.67;3.67;;;;;26.11;44.50;101712.84;4959291;28;45443;-76
2022/07/12 01:36:36;;;;;;;;;4.00;4.00;;;;;26.23;44.59;101730.59;4958117;28;45342;-76
2022/07/12 01:39:04;;;;;;;;;4.67;4.00;;;;;26.12;44.17;101711.91;4958310;28;45380;-76
2022/07/12 01:41:31;;;;;;;;;2.67;2.67;;;;;26.23;44.17;101726.06;4959161;28;45325;-76
2022/07/12 01:43:57;;;;;;;;;4.00;4.00;;;;;26.20;44.27;101720.69;4959114;28;45259;-76
2022/07/12 01:46:22;;;;;;;;;4.00;4.00;;;;;26.18;44.45;101717.16;4959251;28;45481;-75
2022/07/12 01:48:48;;;;;;;;;5.00;4.00;;;;;26.14;44.15;101701.88;4959395;28;45386;-76
2022/07/12 01:51:13;;;;;;;;;3.67;3.67;;;;;26.16;43.99;101702.69;4958536;28;50438;-76
2022/07/12 01:53:39;;;;;;;;;3.00;3.00;;;;;26.09;44.14;101684.78;4959232;28;45412;-75
2022/07/12 01:56:04;;;;;;;;;3.67;3.67;;;;;26.17;44.73;101719.00;4958637;28;46034;-76
2022/07/12 01:58:30;;;;;;;;;6.33;4.00;;;;;26.13;44.51;101719.13;4959470;28;45227;-76
2022/07/12 02:00:57;;;;;;;;;4.00;4.00;;;;;26.09;44.60;101721.06;4958925;28;46333;-76
2022/07/12 02:03:23;;;;;;;;;3.00;3.00;;;;;26.12;44.70;101715.50;4958959;28;45504;-76
2022/07/12 02:05:48;;;;;;;;;5.00;4.00;;;;;26.09;45.00;101714.69;4958914;28;45389;-76
2022/07/12 02:08:14;;;;;;;;;4.00;4.00;;;;;26.04;44.84;101723.00;4958611;28;45382;-76
2022/07/12 02:10:40;;;;;;;;;4.00;3.67;;;;;25.99;45.01;101714.97;4959032;28;46365;-76
2022/07/12 02:13:06;;;;;;;;;4.00;4.00;;;;;26.04;45.22;101716.69;4958909;28;45317;-76
2022/07/12 02:15:31;;;;;;;;;4.00;4.00;;;;;25.95;44.72;101706.94;4957706;28;45452;-76
2022/07/12 02:17:57;;;;;;;;;5.00;5.00;;;;;26.01;45.17;101718.56;4958987;28;45456;-77
2022/07/12 02:20:23;;;;;;;;;6.00;5.00;;;;;25.98;45.03;101721.34;4958316;28;46635;-76
2022/07/12 02:22:48;;;;;;;;;5.00;5.00;;;;;25.83;45.70;101713.63;4958631;28;45526;-75
2022/07/12 02:25:14;;;;;;;;;5.33;4.33;;;;;25.75;45.37;101704.81;4958544;28;45302;-76
2022/07/12 02:27:40;;;;;;;;;6.00;4.00;;;;;25.92;45.71;101724.25;4958742;28;45547;-76
2022/07/12 02:30:07;;;;;;;;;5.00;5.00;;;;;25.95;45.64;101726.88;4958652;28;45616;-75
2022/07/12 02:32:32;;;;;;;;;5.67;5.67;;;;;25.76;45.81;101695.72;4958476;28;45445;-75
2022/07/12 02:34:58;;;;;;;;;5.00;4.00;;;;;25.93;45.76;101730.56;4958425;28;45408;-76
2022/07/12 02:37:23;;;;;;;;;5.00;5.00;;;;;25.85;45.94;101717.22;4958522;28;45475;-75
2022/07/12 02:39:48;;;;;;;;;4.67;4.00;;;;;25.91;45.56;101733.34;4958402;28;46288;-75
2022/07/12 02:42:14;;;;;;;;;7.00;5.67;;;;;25.90;45.68;101717.94;4957056;28;45717;-75
2022/07/12 02:44:39;;;;;;;;;2.00;2.00;;;;;25.80;45.81;101700.16;4958560;28;45414;-76
2022/07/12 02:47:05;;;;;;;;;6.00;6.00;;;;;25.90;46.11;101719.78;4958560;28;45361;-75
2022/07/12 02:49:30;;;;;;;;;4.00;4.00;;;;;25.86;45.94;101716.25;4957851;28;45379;-75
2022/07/12 02:51:56;;;;;;;;;5.00;5.00;;;;;25.87;45.53;101720.78;4958379;28;45375;-75
2022/07/12 02:54:21;;;;;;;;;6.67;6.67;;;;;25.82;46.04;101720.00;4957952;28;45339;-75
2022/07/12 02:56:46;;;;;;;;;5.33;5.33;;;;;25.78;45.88;101710.16;4958256;28;45448;-75
2022/07/12 02:59:12;;;;;;;;;4.00;4.00;;;;;25.72;45.81;101710.34;4956811;28;46414;-75
2022/07/12 03:01:37;;;;;;;;;5.33;4.00;;;;;25.63;46.22;101709.69;4958274;28;45270;-75
2022/07/12 03:04:02;;;;;;;;;4.33;4.00;;;;;25.50;46.42;101705.53;4957792;28;45223;-75
2022/07/12 03:06:28;;;;;;;;;5.00;5.00;;;;;25.59;46.08;101732.44;4958167;28;45529;-75
2022/07/12 03:08:53;;;;;;;;;4.67;4.67;;;;;25.59;46.65;101727.00;4957972;28;45259;-76
2022/07/12 03:11:18;;;;;;;;;5.33;5.33;;;;;25.57;46.58;101718.03;4957811;28;45316;-76
2022/07/12 03:13:44;;;;;;;;;4.00;4.00;;;;;25.59;46.67;101735.16;4958333;28;45439;-75
2022/07/12 03:16:09;;;;;;;;;4.33;2.00;;;;;25.52;46.19;101712.69;4957808;28;45313;-75
2022/07/12 03:18:34;;;;;;;;;5.33;4.67;;;;;25.57;46.17;101723.44;4957592;28;45465;-75
2022/07/12 03:21:00;;;;;;;;;4.00;4.00;;;;;25.50;46.17;101716.41;4957891;28;45323;-75
2022/07/12 03:23:25;;;;;;;;;5.00;5.00;;;;;25.55;46.30;101716.28;4956583;28;45503;-75
2022/07/12 03:25:51;;;;;;;;;4.33;4.33;;;;;25.60;46.36;101733.34;4958049;28;45408;-73
2022/07/12 03:28:16;;;;;;;;;3.00;3.00;;;;;25.53;46.77;101721.75;4957815;28;45485;-73
2022/07/12 03:30:41;;;;;;;;;6.00;6.00;;;;;25.51;46.71;101724.53;4957103;28;45411;-73
2022/07/12 03:33:07;;;;;;;;;4.00;4.00;;;;;25.49;46.75;101733.63;4957379;28;45383;-73
2022/07/12 03:35:33;;;;;;;;;4.67;4.67;;;;;25.51;46.83;101737.19;4957706;28;45448;-75
2022/07/12 03:37:58;;;;;;;;;5.67;5.00;;;;;25.45;46.70;101730.09;4957745;28;45540;-75
2022/07/12 03:40:23;;;;;;;;;4.00;4.00;;;;;25.47;47.08;101738.22;4957466;28;45501;-75
2022/07/12 03:42:50;;;;;;;;;7.33;5.33;;;;;25.40;46.92;101725.72;4956226;28;45762;-75
2022/07/12 03:45:15;;;;;;;;;3.00;3.00;;;;;25.36;46.67;101724.03;4957501;28;45485;-75
2022/07/12 03:47:41;;;;;;;;;5.00;5.00;;;;;25.36;46.61;101726.75;4957212;28;45905;-75
2022/07/12 03:50:13;;;;;;;;;4.33;4.00;;;;;25.37;46.42;101744.84;4957430;28;45460;-75
2022/07/12 03:52:40;;;;;;;;;4.67;4.67;;;;;25.30;47.27;101735.91;4957894;28;45580;-75
2022/07/12 03:55:06;;;;;;;;;6.00;6.00;;;;;25.30;47.39;101755.84;4957128;28;45664;-75
2022/07/12 03:57:35;;;;;;;;;3.00;3.00;;;;;25.17;46.93;101735.38;4956803;28;45985;-75
2022/07/12 04:00:02;;;;;;;;;5.00;5.00;;;;;25.20;47.28;101739.81;4957156;28;45422;-75
2022/07/12 04:02:27;;;;;;;;;4.33;4.33;;;;;25.14;47.49;101740.88;4956959;28;45326;-75
2022/07/12 04:04:52;;;;;;;;;2.00;2.00;;;;;25.19;46.95;101757.97;4957242;28;45505;-75
2022/07/12 04:07:18;;;;;;;;;5.00;5.00;;;;;25.20;47.52;101764.28;4956764;28;46223;-75
2022/07/12 04:09:44;;;;;;;;;5.00;5.00;;;;;25.11;47.74;101765.41;4955898;28;45982;-74
2022/07/12 04:12:09;;;;;;;;;4.00;4.00;;;;;25.02;48.02;101755.69;4956970;28;45524;-74
2022/07/12 04:14:35;;;;;;;;;4.00;4.00;;;;;25.06;47.91;101764.63;4957218;28;45497;-73
2022/07/12 04:17:01;;;;;;;;;5.33;5.00;;;;;25.13;47.91;101763.53;4956840;28;46378;-73
2022/07/12 04:19:31;;;;;;;;;5.00;5.00;;;;;25.25;47.22;101760.50;4956944;28;45503;-72
2022/07/12 04:21:56;;;;;;;;;5.00;5.00;;;;;25.37;47.24;101780.16;4957064;28;45387;-72
2022/07/12 04:24:22;;;;;;;;;4.00;4.00;;;;;25.31;47.25;101764.88;4956651;28;45420;-72
2022/07/12 04:26:48;;;;;;;;;6.00;5.00;;;;;25.25;47.36;101776.78;4956828;28;46353;-75
2022/07/12 04:29:18;;;;;;;;;6.00;5.67;;;;;25.26;47.66;101773.16;4956635;28;45600;-73
2022/07/12 04:31:43;;;;;;;;;5.00;4.00;;;;;25.14;47.46;101766.19;4956687;28;45312;-74
2022/07/12 04:34:08;;;;;;;;;5.67;5.00;;;;;25.12;47.62;101761.78;4956657;28;45497;-74
2022/07/12 04:36:34;;;;;;;;;6.00;4.00;;;;;25.12;48.21;101778.06;4956567;28;46319;-73
2022/07/12 04:38:59;;;;;;;;;5.00;4.00;;;;;25.09;48.07;101775.41;4956685;28;45248;-74
2022/07/12 04:41:24;;;;;;;;;5.67;5.67;;;;;25.06;48.43;101781.78;4956666;28;45621;-73
2022/07/12 04:43:50;;;;;;;;;3.00;3.00;;;;;25.02;48.32;101766.53;4955639;28;45500;-73
2022/07/12 04:46:15;;;;;;;;;5.00;5.00;;;;;24.95;48.32;101773.94;4956121;28;45542;-73
2022/07/12 04:48:41;;;;;;;;;4.00;4.00;;;;;24.92;49.00;101774.03;4956643;28;45463;-73
2022/07/12 04:51:06;;;;;;;;;5.00;5.00;;;;;24.89;48.54;101776.78;4956837;28;45381;-73
2022/07/12 04:53:32;;;;;;;;;4.00;4.00;;;;;24.92;48.52;101775.81;4956529;28;45442;-71
2022/07/12 04:55:57;;;;;;;;;5.33;5.33;;;;;24.97;49.20;101788.34;4956151;28;46290;-75
2022/07/12 04:58:23;;;;;;;;;6.33;5.33;;;;;24.97;48.40;101788.34;4956121;28;45431;-74
2022/07/12 05:00:49;;;;;;;;;6.00;6.00;;;;;24.92;48.64;101768.59;4956382;28;45456;-74
2022/07/12 05:03:15;;;;;;;;;6.00;5.00;;;;;25.04;48.26;101782.78;4956147;28;45441;-75
2022/07/12 05:05:40;;;;;;;;;6.00;6.00;;;;;25.04;48.28;101780.97;4956285;28;45479;-74
2022/07/12 05:08:06;;;;;;;;;5.33;5.00;;;;;25.04;48.52;101783.66;4956422;28;45426;-73
2022/07/12 05:10:31;;;;;;;;;4.67;4.67;;;;;25.06;48.49;101789.06;4956304;28;45691;-74
2022/07/12 05:12:57;;;;;;;;;5.33;5.00;;;;;25.16;48.34;101804.19;4954840;28;45627;-72
2022/07/12 05:15:22;;;;;;;;;5.00;5.00;;;;;25.16;48.15;101813.25;4955455;28;45443;-73
2022/07/12 05:17:48;;;;;;;;;5.00;5.00;;;;;25.18;47.79;101807.75;4956356;28;45441;-74
2022/07/12 05:20:13;;;;;;;;;5.67;5.33;;;;;25.19;48.19;101798.69;4955054;28;45557;-73
2022/07/12 05:22:41;;;;;;;;;5.67;5.67;;;;;25.31;47.70;101820.06;4956266;28;45396;-73
2022/07/12 05:25:06;;;;;;;;;5.33;5.00;;;;;25.32;47.77;101815.59;4954878;28;47251;-74
2022/07/12 05:27:32;;;;;;;;;5.00;5.00;;;;;25.28;47.35;101812.00;4955769;28;45556;-74
2022/07/12 05:29:57;;;;;;;;;6.33;6.00;;;;;25.32;47.68;101810.16;4955896;28;45447;-75
2022/07/12 05:32:23;;;;;;;;;7.67;7.00;;;;;25.30;47.50;101821.03;4956216;28;45440;-73
2022/07/12 05:34:49;;;;;;;;;4.67;4.67;;;;;25.31;47.49;101824.63;4955452;28;47036;-74
2022/07/12 05:37:14;;;;;;;;;4.00;4.00;;;;;25.32;47.54;101824.63;4956004;28;45346;-74
2022/07/12 05:39:39;;;;;;;;;5.33;5.33;;;;;25.29;47.11;101819.25;4956195;28;45430;-75
2022/07/12 05:42:05;;;;;;;;;4.00;4.00;;;;;25.33;46.98;101826.41;4956158;28;45380;-74
2022/07/12 05:44:30;;;;;;;;;6.33;6.33;;;;;25.18;47.11;101807.75;4955219;28;45395;-73
2022/07/12 05:46:55;;;;;;;;;6.67;6.67;;;;;25.29;47.23;101834.66;4955924;28;45313;-73
2022/07/12 05:49:21;;;;;;;;;7.00;5.33;;;;;25.25;47.40;101822.97;4955889;28;45352;-75
2022/07/12 05:54:30;;;;;;;;;6.33;6.33;;;;;25.27;47.23;101828.34;4956710;28;45488;-75
2022/07/12 05:56:56;;;;;;;;;5.00;5.00;;;;;25.08;46.89;101798.97;4958523;28;45420;-75
2022/07/12 05:59:21;;;;;;;;;6.00;5.00;;;;;25.36;47.07;101843.56;4958967;28;45319;-75
2022/07/12 06:01:46;;;;;;;;;5.67;5.67;;;;;25.24;47.13;101823.00;4958031;28;45454;-75
2022/07/12 06:04:12;;;;;;;;;6.00;6.00;;;;;25.40;46.80;101828.97;4958577;28;45369;-75
2022/07/12 06:06:37;;;;;;;;;6.00;6.00;;;;;25.43;46.77;101839.75;4959030;28;45319;-75
2022/07/12 06:09:03;;;;;;;;;5.67;5.67;;;;;25.43;46.76;101845.19;4958949;28;45346;-75
2022/07/12 06:11:28;;;;;;;;;7.00;7.00;;;;;25.39;46.78;101841.66;4958336;28;45192;-75
2022/07/12 06:13:53;;;;;;;;;7.00;7.00;;;;;25.45;47.13;101854.19;4957387;28;47984;-75
2022/07/12 06:16:19;;;;;;;;;6.67;6.67;;;;;25.43;46.94;101856.03;4957406;28;46078;-75
2022/07/12 06:18:44;;;;;;;;;5.33;5.33;;;;;25.48;47.18;101851.41;4957290;28;45462;-75
2022/07/12 06:21:09;;;;;;;;;5.00;5.00;;;;;25.42;46.41;101843.41;4958894;28;45276;-73
2022/07/12 06:23:35;;;;;;;;;7.00;6.00;;;;;25.47;47.08;101844.16;4958488;28;46080;-75
2022/07/12 06:26:01;;;;;;;;;4.67;4.67;;;;;25.54;46.84;101853.97;4958140;28;45238;-75
2022/07/12 06:28:26;;;;;;;;;7.00;6.00;;;;;25.62;46.73;101860.06;4958360;28;45333;-75
2022/07/12 06:30:51;;;;;;;;;6.33;6.33;;;;;25.58;46.70;101868.34;4958535;28;45282;-75
2022/07/12 06:33:17;;;;;;;;;7.00;7.00;;;;;25.43;46.51;101856.03;4958264;28;46184;-75
2022/07/12 06:35:42;;;;;;;;;7.67;7.67;;;;;25.42;46.71;101855.16;4958273;28;45577;-75
2022/07/12 06:38:07;;;;;;;;;9.67;9.67;;;;;25.46;47.22;101859.59;4958384;28;45445;-76
2022/07/12 06:40:33;;;;;;;;;7.33;7.33;;;;;25.39;47.34;101847.09;4958038;28;45379;-75
2022/07/12 06:42:58;;;;;;;;;6.00;6.00;;;;;25.49;47.08;101864.06;4958365;28;45524;-76
2022/07/12 06:45:24;;;;;;;;;6.33;5.33;;;;;25.44;47.43;101853.31;4958072;28;45519;-75
2022/07/12 06:47:50;;;;;;;;;8.00;7.33;;;;;25.43;47.18;101862.38;4958569;28;45571;-75
2022/07/12 06:50:15;;;;;;;;;7.00;7.00;;;;;25.36;47.10;101843.56;4958040;28;45514;-75
2022/07/12 06:52:41;;;;;;;;;9.00;8.00;;;;;25.29;47.04;101843.69;4957805;28;45404;-75
2022/07/12 06:55:07;;;;;;;;;7.00;7.00;;;;;25.32;47.93;101851.78;4957756;28;45522;-75
2022/07/12 06:57:34;;;;;;;;;7.00;6.33;;;;;25.50;47.94;101866.72;4957858;28;45354;-75
2022/07/12 07:00:00;;;;;;;;;9.00;8.00;;;;;25.50;47.53;101868.56;4958180;28;45486;-75
2022/07/12 07:02:25;;;;;;;;;8.33;7.33;;;;;25.50;47.21;101874.00;4957733;28;45440;-75
2022/07/12 07:04:51;;;;;;;;;7.00;7.00;;;;;25.38;47.12;101849.84;4957954;28;45351;-75
2022/07/12 07:07:17;;;;;;;;;6.00;6.00;;;;;25.54;47.46;101875.72;4957316;28;45505;-75
2022/07/12 07:09:42;;;;;;;;;13.00;9.00;;;;;25.52;47.33;101872.13;4957386;28;45501;-75
2022/07/12 07:12:08;;;;;;;;;8.33;8.33;;;;;25.55;47.36;101872.03;4957786;28;46375;-75
2022/07/12 07:14:33;;;;;;;;;7.67;7.67;;;;;25.56;47.15;101862.06;4957747;28;45357;-75
2022/07/12 07:16:59;;;;;;;;;7.00;6.00;;;;;25.66;47.16;101869.03;4958054;28;45325;-75
2022/07/12 07:19:26;;;;;;;;;8.67;8.33;;;;;25.73;47.20;101881.53;4957660;28;45539;-75
2022/07/12 07:21:51;;;;;;;;;7.67;7.67;;;;;25.63;46.84;101859.16;4957943;28;45436;-75
2022/07/12 07:24:17;;;;;;;;;7.67;7.67;;;;;25.68;46.75;101864.44;4955950;28;45446;-75
2022/07/12 07:26:42;;;;;;;;;9.00;8.00;;;;;25.66;46.97;101866.31;4957718;28;45411;-75
2022/07/12 07:31:51;;;;;;;;;8.00;8.00;;;;;25.89;47.28;101875.69;4957332;28;45844;-75
2022/07/12 07:34:16;;;;;;;;;8.33;8.33;;;;;25.83;46.72;101864.03;4957618;28;45378;-75
2022/07/12 07:36:42;;;;;;;;;9.00;8.00;;;;;25.98;47.05;101876.31;4957728;28;45964;-74
2022/07/12 07:39:07;;;;;;;;;9.00;8.00;;;;;25.99;46.57;101880.84;4956013;28;45503;-75
2022/07/12 07:41:33;;;;;;;;;7.67;7.67;;;;;26.00;46.35;101879.88;4956039;28;47777;-75
2022/07/12 07:43:58;;;;;;;;;7.00;7.00;;;;;25.96;47.03;101880.94;4957461;28;47013;-75
2022/07/12 07:46:24;;;;;;;;;7.67;7.67;;;;;25.99;46.72;101883.56;4957520;28;45390;-75
2022/07/12 07:48:49;;;;;;;;;8.67;8.67;;;;;26.03;46.95;101878.94;4957538;28;45449;-75
2022/07/12 07:51:14;;;;;;;;;10.00;9.00;;;;;25.99;46.35;101863.63;4955886;28;53288;-75
2022/07/12 07:53:39;;;;;;;;;8.00;7.00;;;;;26.12;46.68;101877.81;4956832;28;45410;-75
2022/07/12 07:56:05;;;;;;;;;9.00;9.00;;;;;26.14;46.93;101878.66;4957091;28;45528;-75
2022/07/12 07:58:32;;;;;;;;;9.33;8.00;;;;;26.11;47.03;101871.47;4955944;28;45567;-75
2022/07/12 08:00:57;;;;;;;;;7.33;7.33;;;;;26.20;46.32;101875.75;4955839;28;47065;-75
2022/07/12 08:03:22;;;;;;;;;9.00;7.33;;;;;26.27;46.62;101885.53;4957174;28;45634;-75
2022/07/12 08:05:48;;;;;;;;;10.00;9.00;;;;;26.32;46.02;101897.16;4957316;28;45444;-75
2022/07/12 08:08:14;;;;;;;;;8.67;7.00;;;;;26.41;46.56;101889.66;4955497;28;45603;-75
2022/07/12 08:10:39;;;;;;;;;10.00;8.00;;;;;26.49;46.48;101884.91;4956716;28;46212;-75
2022/07/12 08:13:05;;;;;;;;;8.33;8.33;;;;;26.53;46.04;101883.88;4957005;28;45503;-75
2022/07/12 08:15:31;;;;;;;;;7.67;7.67;;;;;26.56;46.16;101877.44;4956935;28;45525;-75
2022/07/12 08:17:57;;;;;;;;;11.00;10.67;;;;;26.60;46.27;101869.13;4956636;28;45393;-75
2022/07/12 08:20:23;;;;;;;;;9.33;8.00;;;;;26.67;45.58;101878.00;4956991;28;45504;-75
2022/07/12 08:22:48;;;;;;;;;8.33;8.33;;;;;26.72;45.61;101872.44;4956415;28;45442;-75
2022/07/12 08:25:14;;;;;;;;;12.00;10.00;;;;;26.76;45.88;101871.41;4956886;28;45395;-75
2022/07/12 08:27:39;;;;;;;;;11.00;9.00;;;;;26.68;45.67;101861.63;4956763;28;45367;-75
2022/07/12 08:30:05;;;;;;;;;8.00;8.00;;;;;26.89;45.91;101886.41;4955234;28;48025;-75
2022/07/12 08:32:31;;;;;;;;;7.33;7.33;;;;;26.85;45.09;101873.88;4956696;28;45549;-74
2022/07/12 08:34:56;;;;;;;;;7.00;7.00;;;;;26.93;45.60;101879.06;4955580;28;45492;-75
2022/07/12 08:37:22;;;;;;;;;8.00;8.00;;;;;27.01;45.61;101886.03;4956439;28;45430;-75
2022/07/12 08:39:47;;;;;;;;;7.00;7.00;;;;;27.11;45.46;101875.72;4956581;28;46164;-75
2022/07/12 08:42:16;;;;;;;;;9.67;7.00;;;;;27.19;44.69;101883.66;4956518;28;45508;-75
2022/07/12 08:44:42;;;;;;;;;9.00;9.00;;;;;27.11;44.85;101864.84;4955325;28;45412;-75
2022/07/12 08:47:08;;;;;;;;;7.00;7.00;;;;;27.26;44.65;101885.25;4956792;28;45382;-75
2022/07/12 08:49:34;;;;;;;;;7.00;7.00;;;;;27.31;44.26;101877.81;4954978;28;47874;-76
2022/07/12 08:51:59;;;;;;;;;7.00;7.00;;;;;27.27;43.24;101865.25;4956006;28;45420;-75
2022/07/12 08:54:25;;;;;;;;;6.00;5.00;;;;;27.24;42.34;101854.41;4956326;28;45481;-75
2022/07/12 08:56:50;;;;;;;;;6.67;5.67;;;;;27.47;41.84;101885.50;4956357;28;45520;-75
2022/07/12 08:59:20;;;;;;;;;4.67;4.67;;;;;27.46;41.27;101870.09;4955128;28;47045;-75
2022/07/12 09:01:47;;;;;;;;;5.67;5.67;;;;;27.53;41.55;101883.44;4956366;28;45373;-75
2022/07/12 09:04:14;;;;;;;;;4.33;4.33;;;;;27.43;40.51;101859.31;4955075;28;45469;-75
2022/07/12 09:06:40;;;;;;;;;7.33;6.00;;;;;27.53;40.89;101882.56;4954602;28;45369;-75
2022/07/12 09:09:08;;;;;;;;;4.00;4.00;;;;;27.48;39.80;101858.19;4954880;28;48457;-75
2022/07/12 09:11:35;;;;;;;;;5.33;5.33;;;;;27.60;39.52;101881.41;4954783;28;45525;-75
2022/07/12 09:14:02;;;;;;;;;5.33;4.00;;;;;27.68;39.62;101882.03;4956434;28;45397;-75
2022/07/12 09:16:28;;;;;;;;;3.67;3.67;;;;;27.71;39.83;101884.66;4956216;28;45469;-72
2022/07/12 09:19:12;;;;;;;;;3.00;3.00;;;;;27.79;40.01;101881.66;4956097;28;46502;-75
2022/07/12 09:21:46;;;;;;;;;4.00;4.00;;;;;27.87;39.95;101881.38;4954286;28;45994;-73
2022/07/12 09:24:11;;;;;;;;;6.00;6.00;;;;;27.87;39.97;101862.28;4956175;28;45450;-75
2022/07/12 09:26:37;;;;;;;;;6.67;6.67;;;;;27.93;40.13;101863.91;4955931;28;45546;-75
2022/07/12 09:29:10;;;;;;;;;3.00;3.00;;;;;28.05;38.89;101886.19;4956932;28;45666;-75
2022/07/12 09:37:12;;;;;;;;;4.00;3.00;;;;;28.11;39.28;101862.38;4959290;28;45466;-75
2022/07/12 09:39:38;;;;;;;;;5.67;5.67;;;;;28.18;39.15;101867.53;4959194;28;45473;-75
2022/07/12 09:42:06;;;;;;;;;5.00;5.00;;;;;28.33;38.92;101887.03;4958087;28;45437;-75
2022/07/12 09:44:33;;;;;;;;;4.00;4.00;;;;;28.40;39.08;101886.72;4959206;28;45453;-75
2022/07/12 09:47:00;;;;;;;;;7.00;5.00;;;;;28.39;38.91;101868.56;4959299;28;45346;-74
2022/07/12 09:49:26;;;;;;;;;6.00;6.00;;;;;28.53;38.79;101886.25;4957398;28;48336;-75
2022/07/12 09:51:56;;;;;;;;;6.00;5.33;;;;;28.40;38.59;101869.47;4959197;28;45315;-74
2022/07/12 09:54:27;;;;;;;;;6.67;5.67;;;;;28.52;38.89;101871.72;4957812;28;45337;-75
2022/07/12 09:56:55;;;;;;;;;5.00;5.00;;;;;28.66;38.55;101882.13;4958737;28;45454;-75
2022/07/12 09:59:23;;;;;;;;;7.00;6.00;;;;;28.75;38.78;101881.75;4957836;28;46407;-75
2022/07/12 10:01:50;;;;;;;;;5.00;5.00;;;;;28.75;38.56;101868.09;4958778;28;45466;-75
2022/07/12 10:04:20;;;;;;;;;5.33;5.33;;;;;28.92;38.63;101888.41;4958661;28;45362;-75
2022/07/12 10:06:47;;;;;;;;;7.00;6.00;;;;;28.92;37.56;101874.75;4958991;28;45602;-75
2022/07/12 10:09:13;;;;;;;;;7.67;6.00;;;;;28.96;38.18;101870.03;4958853;28;45457;-75
2022/07/12 10:11:40;;;;;;;;;7.00;6.00;;;;;29.13;37.75;101894.84;4958712;28;45480;-75
2022/07/12 10:14:05;;;;;;;;;6.00;6.00;;;;;29.10;37.60;101886.78;4957526;28;45354;-76
2022/07/12 10:16:35;;;;;;;;;8.33;8.00;;;;;29.00;37.80;101861.66;4957258;28;45592;-73
2022/07/12 10:19:25;;;;;;;;;6.67;6.00;;;;;29.13;37.72;101883.00;4958463;28;45456;-75
2022/07/12 10:21:55;;;;;;;;;7.33;6.33;;;;;29.12;37.65;101881.25;4957290;28;45626;-75
2022/07/12 10:24:32;;;;;;;;;6.00;5.00;;;;;29.21;37.42;101894.50;4958754;28;45635;-75
2022/07/12 10:27:00;;;;;;;;;6.33;6.33;;;;;29.21;37.15;101883.56;4958638;28;45250;-75
2022/07/12 10:29:25;;;;;;;;;5.33;5.33;;;;;29.17;36.20;101874.63;4958266;28;45565;-75
2022/07/12 10:31:52;;;;;;;;;5.67;5.67;;;;;29.23;36.62;101885.31;4958133;28;45453;-75
2022/07/12 10:34:24;;;;;;;;;8.00;6.00;;;;;29.25;36.27;101886.16;4958168;28;45528;-75
2022/07/12 10:36:56;;;;;;;;;6.67;6.67;;;;;29.38;36.27;101892.00;4958222;28;45331;-75
2022/07/12 10:39:22;;;;;;;;;6.00;6.00;;;;;29.44;35.68;101885.38;4958009;28;46270;-74
2022/07/12 10:42:05;;;;;;;;;7.67;7.00;;;;;29.50;36.51;101895.16;4956508;28;45424;-75
2022/07/12 10:44:42;;;;;;;;;6.00;6.00;;;;;29.51;35.78;101888.75;4958215;28;45492;-75
2022/07/12 10:47:08;;;;;;;;;5.00;5.00;;;;;29.48;35.71;101877.91;4958045;28;45286;-75
2022/07/12 10:49:35;;;;;;;;;9.33;5.67;;;;;29.50;35.92;101863.25;4957974;28;45358;-75
2022/07/12 10:52:10;;;;;;;;;6.67;6.67;;;;;29.59;35.22;101878.34;4958093;28;45300;-76
2022/07/12 10:54:39;;;;;;;;;6.00;6.00;;;;;29.56;34.83;101867.56;4957750;28;45326;-75
2022/07/12 10:57:05;;;;;;;;;7.33;5.00;;;;;29.49;35.16;101853.25;4958234;28;45281;-75
2022/07/12 10:59:34;;;;;;;;;7.67;7.67;;;;;29.69;34.17;101874.28;4956285;28;48140;-75
2022/07/12 11:02:00;;;;;;;;;6.00;6.00;;;;;29.64;34.36;101859.03;4956348;28;45697;-75
2022/07/12 11:04:27;;;;;;;;;7.67;6.00;;;;;29.76;35.50;101869.41;4958039;28;45400;-76
2022/07/12 11:06:57;;;;;;;;;6.67;6.67;;;;;29.89;34.99;101867.94;4957861;28;46019;-75
2022/07/12 11:09:24;;;;;;;;;6.00;6.00;;;;;29.94;34.74;101865.91;4957794;28;46071;-75
2022/07/12 11:11:51;;;;;;;;;5.00;5.00;;;;;29.90;34.36;101844.19;4957749;28;45297;-76
2022/07/12 11:14:25;;;;;;;;;7.67;6.00;;;;;29.97;33.78;101861.25;4956794;28;45474;-76
2022/07/12 11:16:52;;;;;;;;;6.00;5.33;;;;;29.96;34.05;101860.38;4957367;28;45522;-75
2022/07/12 11:19:22;;;;;;;;;5.67;5.67;;;;;30.00;34.54;101855.63;4956285;28;47608;-75
2022/07/12 11:21:54;;;;;;;;;5.67;5.67;;;;;30.06;34.02;101855.38;4957546;28;45444;-73
2022/07/12 11:24:22;;;;;;;;;5.33;4.33;;;;;30.06;34.81;101836.22;4957526;28;45431;-73
2022/07/12 11:26:48;;;;;;;;;6.33;6.33;;;;;30.24;34.23;101861.84;4957418;28;45332;-73
2022/07/12 11:29:13;;;;;;;;;6.67;6.67;;;;;30.25;34.41;101860.84;4957496;28;45310;-76
2022/07/12 11:31:39;;;;;;;;;6.00;5.00;;;;;30.22;33.81;101839.09;4956953;28;45314;-75